Time;durP1;ratioP1;P1;durP2;ratioP2;P2;SDS_P1;SDS_P2;PMS_P1;PMS_P2;Temp;Humidity;BMP_temperature;BMP_pressure;BME280_temperature;BME280_humidity;BME280_pressure;Samples;Min_cycle;Max_cycle;Signal;HPM_P1;HPM_P2
2023/01/25 00:01:05;;;;;;;5.07;4.57;;;20.90;40.50;;;;;;5065540;28;20037;-50
2023/01/25 00:03:32;;;;;;;5.72;4.68;;;21.10;40.50;;;;;;5058228;28;20803;-43
2023/01/25 00:06:00;;;;;;;6.25;4.40;;;21.20;40.30;;;;;;5065262;28;20048;-48
2023/01/25 00:08:28;;;;;;;5.18;4.13;;;21.30;40.20;;;;;;5065511;28;20044;-45
2023/01/25 00:10:55;;;;;;;5.40;4.90;;;21.40;40.20;;;;;;5057237;28;20115;-43
2023/01/25 00:13:23;;;;;;;4.97;4.57;;;21.50;40.00;;;;;;5060945;28;20127;-45
2023/01/25 00:15:50;;;;;;;4.97;4.57;;;21.70;39.90;;;;;;5065466;28;20600;-44
2023/01/25 00:18:17;;;;;;;4.80;4.40;;;21.80;39.50;;;;;;5062463;28;20491;-44
2023/01/25 00:20:44;;;;;;;5.43;4.80;;;21.80;39.30;;;;;;5059791;28;20048;-44
2023/01/25 00:23:11;;;;;;;6.60;5.55;;;21.90;38.90;;;;;;5054827;28;20145;-42
2023/01/25 00:25:39;;;;;;;5.88;5.18;;;22.00;38.60;;;;;;5056400;28;20048;-42
2023/01/25 00:28:06;;;;;;;5.75;5.18;;;22.10;38.30;;;;;;5055311;28;20123;-46
2023/01/25 00:30:33;;;;;;;7.72;5.18;;;22.20;38.10;;;;;;5055394;28;20085;-52
2023/01/25 00:33:06;;;;;;;6.53;6.00;;;22.30;38.10;;;;;;5063329;28;20135;-47
2023/01/25 00:35:34;;;;;;;5.88;5.32;;;22.30;37.80;;;;;;5063472;28;20048;-47
2023/01/25 00:38:06;;;;;;;5.70;5.20;;;22.40;37.70;;;;;;5063606;28;20037;-50
2023/01/25 00:40:34;;;;;;;6.25;5.68;;;22.40;37.60;;;;;;5065004;28;20839;-49
2023/01/25 00:43:02;;;;;;;4.97;4.53;;;22.50;37.50;;;;;;5064504;28;20041;-49
2023/01/25 00:45:32;;;;;;;5.30;4.80;;;22.60;37.40;;;;;;5063544;28;20079;-45
2023/01/25 00:47:59;;;;;;;8.23;6.07;;;22.60;37.40;;;;;;5064346;28;20097;-45
2023/01/25 00:50:26;;;;;;;9.45;6.88;;;22.70;37.70;;;;;;5064372;28;20137;-47
2023/01/25 00:52:53;;;;;;;7.72;6.63;;;22.70;36.90;;;;;;5059664;28;20044;-46
2023/01/25 00:55:21;;;;;;;10.75;6.20;;;22.70;36.20;;;;;;5062846;28;20102;-46
2023/01/25 00:57:49;;;;;;;10.15;6.95;;;22.70;36.40;;;;;;5063375;28;20028;-44
2023/01/25 01:00:18;;;;;;;8.60;7.63;;;22.70;36.40;;;;;;5064783;28;20431;-46
2023/01/25 01:02:47;;;;;;;7.88;5.80;;;22.60;36.30;;;;;;5065173;28;20045;-57
2023/01/25 01:05:15;;;;;;;14.70;7.00;;;22.60;36.70;;;;;;5063838;28;20049;-51
2023/01/25 01:07:42;;;;;;;8.40;6.30;;;22.50;36.60;;;;;;5064956;28;20503;-53
2023/01/25 01:10:10;;;;;;;10.45;6.47;;;22.40;36.70;;;;;;5063348;28;20481;-54
2023/01/25 01:12:37;;;;;;;17.55;7.25;;;22.40;36.80;;;;;;5057091;28;20075;-53
2023/01/25 01:15:06;;;;;;;13.05;6.97;;;22.40;37.00;;;;;;5057596;28;20064;-51
2023/01/25 01:17:35;;;;;;;7.97;6.53;;;22.30;37.00;;;;;;5056871;28;20136;-51
2023/01/25 01:20:02;;;;;;;11.25;6.82;;;22.30;36.90;;;;;;5064601;28;20049;-48
2023/01/25 01:22:29;;;;;;;10.68;6.40;;;22.30;36.80;;;;;;5064632;28;20383;-53
2023/01/25 01:24:56;;;;;;;7.70;6.88;;;22.20;36.70;;;;;;5063508;28;20057;-52
2023/01/25 01:27:23;;;;;;;8.00;7.22;;;22.10;36.70;;;;;;5058611;28;20163;-52
2023/01/25 01:29:51;;;;;;;7.03;6.35;;;22.10;36.70;;;;;;5055045;28;20048;-53
2023/01/25 01:32:18;;;;;;;6.95;6.18;;;22.00;36.80;;;;;;5064031;28;20044;-52
2023/01/25 01:34:46;;;;;;;10.48;6.60;;;22.00;36.80;;;;;;5062408;28;20099;-52
2023/01/25 01:37:13;;;;;;;13.10;6.63;;;21.90;36.90;;;;;;5056004;28;20041;-48
2023/01/25 01:39:41;;;;;;;12.07;6.57;;;21.90;37.00;;;;;;5061916;28;20500;-50
2023/01/25 01:42:08;;;;;;;9.07;6.00;;;21.80;37.10;;;;;;5050785;28;20052;-49
2023/01/25 01:44:48;;;;;;;12.00;6.75;;;21.80;37.10;;;;;;5055980;28;20119;-48
2023/01/25 01:47:22;;;;;;;9.75;7.05;;;21.70;37.20;;;;;;5054953;28;20058;-48
2023/01/25 01:49:59;;;;;;;10.40;5.63;;;21.70;37.30;;;;;;5057610;28;20068;-51
2023/01/25 01:52:32;;;;;;;12.10;6.50;;;21.60;37.30;;;;;;5075218;28;20040;-49
2023/01/25 01:55:06;;;;;;;11.23;5.97;;;21.60;37.40;;;;;;5055362;28;20615;-48
2023/01/25 01:57:37;;;;;;;8.57;5.47;;;21.60;37.50;;;;;;5052031;28;20045;-49
2023/01/25 02:00:13;;;;;;;13.32;5.68;;;21.50;37.50;;;;;;5054930;28;20044;-48
2023/01/25 02:02:40;;;;;;;8.00;7.20;;;21.50;37.70;;;;;;5061540;28;20080;-50
2023/01/25 02:05:14;;;;;;;8.27;6.68;;;21.40;37.70;;;;;;5064974;28;20044;-47
2023/01/25 02:07:43;;;;;;;9.65;6.05;;;21.40;37.70;;;;;;5066115;28;20075;-49
2023/01/25 02:10:12;;;;;;;9.38;6.28;;;21.40;37.80;;;;;;5060384;28;20037;-50
2023/01/25 02:12:42;;;;;;;10.13;6.25;;;21.40;37.90;;;;;;5066536;28;20040;-48
2023/01/25 02:15:10;;;;;;;7.82;6.32;;;21.30;37.90;;;;;;5066364;28;20044;-48
2023/01/25 02:17:39;;;;;;;7.90;6.80;;;21.30;37.90;;;;;;5068040;28;20072;-49
2023/01/25 02:20:17;;;;;;;7.30;6.60;;;21.30;38.00;;;;;;5066532;28;20571;-47
2023/01/25 02:22:51;;;;;;;7.20;6.45;;;21.20;38.00;;;;;;5066301;28;20048;-48
2023/01/25 02:25:20;;;;;;;9.82;5.60;;;21.20;38.10;;;;;;5066076;28;20047;-49
2023/01/25 02:27:52;;;;;;;6.60;5.38;;;21.10;38.10;;;;;;5050180;28;20056;-50
2023/01/25 02:30:20;;;;;;;7.97;6.53;;;21.10;38.20;;;;;;5063698;28;20067;-46
2023/01/25 02:32:47;;;;;;;7.90;7.03;;;21.00;38.10;;;;;;5067624;28;20067;-49
2023/01/25 02:35:19;;;;;;;7.50;6.63;;;21.10;38.40;;;;;;5066359;28;20098;-51
2023/01/25 02:37:46;;;;;;;6.95;6.30;;;21.00;38.50;;;;;;5066407;28;20160;-53
2023/01/25 02:40:13;;;;;;;9.18;7.07;;;21.00;38.40;;;;;;5065974;28;20037;-50
2023/01/25 02:42:44;;;;;;;8.32;7.00;;;21.00;38.50;;;;;;5065974;28;20044;-52
2023/01/25 02:45:17;;;;;;;6.55;5.70;;;21.00;38.60;;;;;;5082967;28;20090;-49
2023/01/25 02:47:47;;;;;;;12.38;7.20;;;21.00;38.80;;;;;;5067557;28;20041;-50
2023/01/25 02:50:15;;;;;;;9.63;5.90;;;20.90;38.70;;;;;;5066012;28;20101;-47
2023/01/25 02:52:42;;;;;;;7.00;6.30;;;20.90;38.90;;;;;;5065543;28;20515;-51
2023/01/25 02:55:10;;;;;;;6.93;6.22;;;20.90;39.00;;;;;;5066583;28;20064;-47
2023/01/25 02:57:39;;;;;;;8.50;6.43;;;20.90;38.90;;;;;;5065718;28;20047;-51
2023/01/25 03:00:09;;;;;;;8.02;6.35;;;20.90;39.10;;;;;;5065726;28;20573;-53
2023/01/25 03:02:36;;;;;;;6.63;5.70;;;20.90;39.30;;;;;;5066710;28;20044;-50
2023/01/25 03:05:05;;;;;;;6.30;5.80;;;20.80;39.30;;;;;;5065483;28;20055;-52
2023/01/25 03:07:32;;;;;;;7.00;5.55;;;20.80;39.30;;;;;;5060536;28;20513;-48
2023/01/25 03:10:00;;;;;;;7.38;6.47;;;20.80;39.30;;;;;;5065228;28;20044;-49
2023/01/25 03:12:27;;;;;;;6.70;5.80;;;20.80;39.30;;;;;;5065463;28;20101;-52
2023/01/25 03:14:54;;;;;;;7.15;5.65;;;20.80;39.40;;;;;;5064592;28;20048;-49
2023/01/25 03:17:23;;;;;;;6.18;5.20;;;20.80;39.40;;;;;;5069758;28;20454;-51
2023/01/25 03:19:52;;;;;;;9.80;6.05;;;20.70;39.50;;;;;;5050723;28;20036;-48
2023/01/25 03:22:19;;;;;;;9.13;6.57;;;20.70;39.40;;;;;;5064902;28;20049;-47
2023/01/25 03:24:47;;;;;;;8.98;5.78;;;20.70;39.40;;;;;;5054271;28;20052;-49
2023/01/25 03:27:17;;;;;;;6.35;5.72;;;20.70;39.50;;;;;;5064309;28;20158;-49
2023/01/25 03:29:48;;;;;;;8.95;6.10;;;20.70;39.40;;;;;;5056360;28;20062;-51
2023/01/25 03:32:23;;;;;;;6.97;5.72;;;20.60;39.50;;;;;;5065209;28;20072;-46
2023/01/25 03:34:50;;;;;;;6.78;6.07;;;20.60;39.60;;;;;;5066313;28;20067;-48
2023/01/25 03:37:19;;;;;;;7.10;5.95;;;20.60;39.60;;;;;;5064665;28;20029;-46
2023/01/25 03:39:48;;;;;;;5.85;5.35;;;20.60;39.60;;;;;;5065052;28;20490;-50
2023/01/25 03:42:15;;;;;;;9.25;7.18;;;20.60;39.60;;;;;;5064871;28;20067;-48
2023/01/25 03:44:43;;;;;;;6.50;5.70;;;20.60;39.60;;;;;;5064284;28;20136;-50
2023/01/25 03:47:10;;;;;;;7.38;6.57;;;20.50;39.60;;;;;;5047942;28;20037;-51
2023/01/25 03:49:39;;;;;;;8.00;5.97;;;20.50;39.60;;;;;;5064714;28;20056;-50
2023/01/25 03:52:08;;;;;;;8.73;7.03;;;20.60;39.60;;;;;;5064503;28;20124;-47
2023/01/25 03:54:38;;;;;;;7.65;6.82;;;20.50;39.60;;;;;;5054644;28;20045;-53
2023/01/25 03:57:07;;;;;;;9.10;6.47;;;20.50;39.60;;;;;;5071017;28;20037;-51
2023/01/25 03:59:41;;;;;;;10.23;7.85;;;20.50;39.70;;;;;;5064385;28;20072;-50
2023/01/25 04:02:09;;;;;;;7.80;6.93;;;20.50;39.60;;;;;;5064247;28;20040;-48
2023/01/25 04:04:37;;;;;;;9.15;6.85;;;20.50;39.60;;;;;;5064299;28;20048;-46
2023/01/25 04:07:05;;;;;;;9.25;6.95;;;20.40;39.70;;;;;;5077817;28;20048;-47
2023/01/25 04:09:34;;;;;;;8.25;6.30;;;20.40;39.70;;;;;;5065889;28;20464;-47
2023/01/25 04:12:01;;;;;;;7.63;6.20;;;20.40;39.70;;;;;;5064600;28;20131;-46
2023/01/25 04:14:31;;;;;;;6.82;6.07;;;20.40;39.80;;;;;;5047975;28;20637;-48
2023/01/25 04:17:04;;;;;;;8.80;6.68;;;20.40;39.90;;;;;;5064440;28;20403;-50
2023/01/25 04:19:38;;;;;;;7.68;6.53;;;20.40;39.80;;;;;;5047612;28;20528;-48
2023/01/25 04:22:11;;;;;;;8.43;6.70;;;20.40;39.60;;;;;;5064149;28;20106;-49
2023/01/25 04:24:38;;;;;;;7.78;7.00;;;20.40;39.70;;;;;;5063934;28;20044;-49
2023/01/25 04:27:07;;;;;;;7.57;5.93;;;20.40;39.80;;;;;;5065484;28;20074;-49
2023/01/25 04:29:40;;;;;;;7.55;6.70;;;20.30;39.80;;;;;;5064232;28;20051;-48
2023/01/25 04:32:09;;;;;;;7.72;6.95;;;20.30;39.80;;;;;;5064059;28;20040;-49
2023/01/25 04:34:36;;;;;;;9.00;6.65;;;20.30;39.80;;;;;;5063581;28;20032;-52
2023/01/25 04:37:03;;;;;;;8.52;6.85;;;20.30;39.70;;;;;;5064200;28;20107;-50
2023/01/25 04:39:36;;;;;;;9.25;6.22;;;20.30;39.70;;;;;;5064195;28;20041;-46
2023/01/25 04:42:03;;;;;;;11.00;6.93;;;20.30;39.80;;;;;;5063687;28;20048;-48
2023/01/25 04:44:31;;;;;;;7.55;6.35;;;20.30;39.70;;;;;;5063856;28;20115;-47
2023/01/25 04:46:59;;;;;;;7.07;6.25;;;20.30;39.70;;;;;;5060528;28;20136;-49
2023/01/25 04:49:26;;;;;;;7.28;6.45;;;20.30;39.70;;;;;;5063476;28;20059;-47
2023/01/25 04:51:53;;;;;;;7.95;6.18;;;20.30;39.80;;;;;;5064167;28;20036;-51
2023/01/25 04:54:21;;;;;;;7.78;6.63;;;20.20;40.60;;;;;;5068013;28;20598;-47
2023/01/25 04:56:49;;;;;;;8.93;6.80;;;20.20;40.00;;;;;;5071615;28;20460;-52
2023/01/25 04:59:16;;;;;;;7.43;6.18;;;20.20;40.00;;;;;;5063714;28;20048;-48
2023/01/25 05:01:43;;;;;;;8.90;6.15;;;20.20;40.00;;;;;;5064012;28;20079;-47
2023/01/25 05:04:10;;;;;;;8.95;5.38;;;20.20;40.00;;;;;;5063222;28;20044;-47
2023/01/25 05:06:41;;;;;;;5.70;5.18;;;20.20;40.10;;;;;;5065183;28;20109;-48
2023/01/25 05:09:09;;;;;;;6.35;5.63;;;20.20;40.00;;;;;;5060808;28;20048;-50
2023/01/25 05:11:36;;;;;;;6.72;5.90;;;20.20;40.00;;;;;;5062101;28;20133;-45
2023/01/25 05:14:28;;;;;;;5.85;4.38;;;20.20;40.00;;;;;;5061962;28;20067;-48
2023/01/25 05:16:55;;;;;;;7.43;5.68;;;20.10;40.00;;;;;;5063535;28;20135;-48
2023/01/25 05:19:22;;;;;;;7.15;5.10;;;20.20;39.90;;;;;;5062775;28;20045;-46
2023/01/25 05:22:00;;;;;;;5.95;5.38;;;20.20;40.00;;;;;;5063307;28;20536;-46
2023/01/25 05:24:35;;;;;;;6.13;4.70;;;20.10;39.80;;;;;;5061120;28;20041;-51
2023/01/25 05:27:06;;;;;;;8.18;5.38;;;20.10;39.90;;;;;;5057650;28;20127;-48
2023/01/25 05:29:55;;;;;;;5.55;4.53;;;20.10;39.90;;;;;;5051579;28;20058;-48
2023/01/25 05:32:49;;;;;;;6.30;4.78;;;20.10;40.00;;;;;;5062907;28;20057;-49
2023/01/25 05:35:18;;;;;;;5.75;4.57;;;20.10;39.80;;;;;;5063287;28;20095;-52
2023/01/25 05:37:46;;;;;;;4.55;4.10;;;20.10;39.70;;;;;;5056340;28;20721;-52
2023/01/25 05:40:21;;;;;;;5.35;4.10;;;20.10;39.80;;;;;;5067209;28;20048;-47
2023/01/25 05:42:54;;;;;;;4.93;3.95;;;20.10;40.00;;;;;;5066534;28;20051;-46
2023/01/25 05:45:26;;;;;;;4.28;3.67;;;20.10;39.80;;;;;;5083660;28;20468;-49
2023/01/25 05:47:55;;;;;;;4.13;3.78;;;20.10;40.00;;;;;;5063690;28;20029;-53
2023/01/25 05:50:24;;;;;;;4.00;3.60;;;20.00;39.90;;;;;;5067024;28;20056;-53
2023/01/25 05:53:00;;;;;;;6.05;4.22;;;20.00;39.90;;;;;;5067309;28;20489;-49
2023/01/25 05:55:29;;;;;;;5.63;3.17;;;20.00;39.90;;;;;;5050409;28;20055;-47
2023/01/25 05:58:00;;;;;;;5.18;3.53;;;20.00;40.00;;;;;;5066691;28;20512;-49
2023/01/25 06:00:29;;;;;;;4.25;3.75;;;20.00;39.90;;;;;;5066485;28;20044;-50
2023/01/25 06:02:59;;;;;;;4.03;2.50;;;20.00;39.90;;;;;;5067568;28;20098;-50
2023/01/25 06:05:29;;;;;;;2.58;2.47;;;20.00;39.90;;;;;;5066210;28;20044;-50
2023/01/25 06:07:58;;;;;;;4.80;3.50;;;20.00;39.90;;;;;;5067930;28;20079;-48
2023/01/25 06:10:29;;;;;;;3.90;2.50;;;20.00;39.90;;;;;;5066341;28;20412;-49
2023/01/25 06:13:00;;;;;;;2.83;2.22;;;20.00;39.90;;;;;;5066595;28;20079;-50
2023/01/25 06:15:28;;;;;;;5.45;2.85;;;20.00;40.00;;;;;;5065471;28;20044;-51
2023/01/25 06:18:05;;;;;;;2.30;2.10;;;20.00;40.50;;;;;;5066076;28;20116;-52
2023/01/25 06:20:43;;;;;;;12.65;5.97;;;20.00;40.10;;;;;;5065878;28;20818;-48
2023/01/25 06:23:10;;;;;;;6.85;2.83;;;20.00;40.10;;;;;;5067350;28;20558;-47
2023/01/25 06:25:37;;;;;;;2.47;2.08;;;20.00;40.10;;;;;;5067056;28;20105;-48
2023/01/25 06:28:05;;;;;;;15.48;8.30;;;20.00;40.00;;;;;;5067009;28;20036;-48
2023/01/25 06:30:33;;;;;;;4.93;3.65;;;19.90;39.90;;;;;;5055441;28;20048;-47
2023/01/25 06:33:01;;;;;;;2.97;2.78;;;20.00;39.90;;;;;;5065855;28;20128;-48
2023/01/25 06:35:30;;;;;;;3.20;2.22;;;20.00;40.00;;;;;;5066764;28;20408;-51
2023/01/25 06:37:59;;;;;;;3.22;2.90;;;20.00;40.00;;;;;;5066170;28;20588;-48
2023/01/25 06:40:28;;;;;;;3.72;2.45;;;19.90;40.00;;;;;;5066930;28;20501;-48
2023/01/25 06:42:55;;;;;;;3.88;3.47;;;19.90;40.00;;;;;;5059923;28;20389;-46
2023/01/25 06:45:22;;;;;;;3.20;2.83;;;19.90;39.90;;;;;;5063199;28;20076;-52
2023/01/25 06:47:50;;;;;;;4.22;3.03;;;19.90;40.00;;;;;;5065925;28;20136;-46
2023/01/25 06:50:18;;;;;;;3.92;2.72;;;19.90;40.00;;;;;;5066776;28;20150;-47
2023/01/25 06:52:52;;;;;;;5.00;2.67;;;19.90;40.00;;;;;;5066676;28;20043;-47
2023/01/25 06:55:19;;;;;;;6.03;2.80;;;19.90;40.00;;;;;;5066372;28;20052;-48
2023/01/25 06:57:46;;;;;;;4.10;2.53;;;19.90;40.00;;;;;;5066877;28;20032;-49
2023/01/25 07:00:14;;;;;;;4.80;3.22;;;19.90;40.00;;;;;;5064942;28;20048;-50
2023/01/25 07:02:41;;;;;;;4.53;3.55;;;19.90;40.10;;;;;;5057817;28;20051;-52
2023/01/25 07:05:11;;;;;;;4.60;3.15;;;19.90;40.20;;;;;;5066554;28;20573;-50
2023/01/25 07:07:38;;;;;;;4.05;2.33;;;19.90;40.10;;;;;;5065562;28;20128;-52
2023/01/25 07:10:07;;;;;;;3.42;2.40;;;19.90;40.20;;;;;;5066361;28;20164;-50
2023/01/25 07:12:35;;;;;;;4.45;2.45;;;19.90;40.20;;;;;;5066598;28;20048;-50
2023/01/25 07:15:03;;;;;;;3.22;2.83;;;19.90;40.20;;;;;;5066231;28;20059;-51
2023/01/25 07:17:30;;;;;;;2.50;2.28;;;19.90;40.30;;;;;;5065361;28;20124;-48
2023/01/25 07:19:57;;;;;;;4.47;2.78;;;19.90;40.30;;;;;;5066445;28;20032;-50
2023/01/25 07:22:26;;;;;;;2.20;1.92;;;19.90;40.20;;;;;;5066128;28;20043;-52
2023/01/25 07:24:56;;;;;;;3.40;2.47;;;19.90;40.10;;;;;;5063984;28;20940;-48
2023/01/25 07:27:23;;;;;;;2.65;2.45;;;19.90;40.10;;;;;;5063053;28;20516;-52
2023/01/25 07:29:51;;;;;;;2.70;2.25;;;19.90;40.10;;;;;;5057283;28;20047;-53
2023/01/25 07:32:18;;;;;;;2.28;2.08;;;19.90;40.20;;;;;;5066359;28;20035;-50
2023/01/25 07:34:45;;;;;;;2.45;1.63;;;19.90;40.10;;;;;;5065865;28;20481;-48
2023/01/25 07:37:12;;;;;;;3.25;2.58;;;19.90;40.10;;;;;;5065927;28;20803;-49
2023/01/25 07:39:46;;;;;;;1.75;1.65;;;19.80;40.00;;;;;;5063082;28;20037;-49
2023/01/25 07:42:14;;;;;;;2.85;2.20;;;19.80;40.10;;;;;;5066092;28;20051;-51
2023/01/25 07:44:50;;;;;;;2.38;2.00;;;19.80;40.10;;;;;;5059572;28;20052;-56
2023/01/25 07:47:17;;;;;;;5.25;3.70;;;19.80;39.70;;;;;;5056280;28;20114;-50
2023/01/25 07:49:44;;;;;;;4.28;2.78;;;19.80;39.40;;;;;;5051085;28;20033;-45
2023/01/25 07:52:11;;;;;;;2.63;2.00;;;19.70;39.30;;;;;;5062227;28;20124;-46
2023/01/25 07:54:38;;;;;;;5.15;2.83;;;19.70;39.30;;;;;;5047141;28;20156;-47
2023/01/25 07:57:06;;;;;;;11.15;3.03;;;19.60;39.10;;;;;;5049764;28;20098;-51
2023/01/25 07:59:33;;;;;;;13.95;4.18;;;19.60;39.20;;;;;;5063844;28;20044;-51
2023/01/25 08:02:00;;;;;;;8.20;2.67;;;19.60;40.70;;;;;;5065373;28;20064;-47
2023/01/25 08:04:28;;;;;;;9.73;3.28;;;19.50;41.30;;;;;;5063533;28;20049;-52
2023/01/25 08:06:56;;;;;;;5.93;2.47;;;19.50;41.60;;;;;;5063381;28;20040;-47
2023/01/25 08:09:23;;;;;;;15.45;3.22;;;19.40;41.90;;;;;;5065120;28;20048;-49
2023/01/25 08:11:52;;;;;;;17.35;4.07;;;19.40;42.10;;;;;;5058069;28;20078;-51
2023/01/25 08:14:20;;;;;;;15.23;3.00;;;19.40;42.20;;;;;;5064885;28;20140;-51
2023/01/25 08:16:48;;;;;;;15.50;3.30;;;19.40;42.40;;;;;;5064578;28;20055;-47
2023/01/25 08:19:15;;;;;;;9.15;3.28;;;19.40;42.50;;;;;;5065452;28;20036;-46
2023/01/25 08:21:42;;;;;;;7.65;2.70;;;19.40;42.50;;;;;;5065404;28;20148;-51
2023/01/25 08:24:09;;;;;;;7.30;2.70;;;19.30;42.40;;;;;;5064145;28;20061;-48
2023/01/25 08:26:38;;;;;;;5.63;2.53;;;19.30;42.50;;;;;;5064847;28;20045;-47
2023/01/25 08:29:07;;;;;;;7.57;2.50;;;19.30;42.40;;;;;;5058774;28;20037;-46
2023/01/25 08:31:36;;;;;;;8.25;2.40;;;19.20;42.30;;;;;;5045575;28;20068;-47
2023/01/25 08:34:04;;;;;;;2.83;1.65;;;19.20;42.20;;;;;;5048517;28;20044;-46
2023/01/25 08:36:31;;;;;;;6.45;2.70;;;19.20;42.10;;;;;;5065115;28;20072;-52
2023/01/25 08:39:01;;;;;;;5.93;2.63;;;19.20;42.00;;;;;;5064255;28;20040;-49
2023/01/25 08:41:29;;;;;;;9.18;2.47;;;19.10;41.90;;;;;;5064722;28;20121;-49
2023/01/25 08:43:57;;;;;;;4.60;2.40;;;19.10;41.80;;;;;;5065830;28;20044;-49
2023/01/25 08:46:26;;;;;;;4.07;3.03;;;19.10;41.80;;;;;;5065354;28;20040;-46
2023/01/25 08:48:56;;;;;;;9.00;3.17;;;19.00;41.60;;;;;;5064222;28;20037;-47
2023/01/25 08:51:24;;;;;;;3.78;1.25;;;19.00;41.50;;;;;;5065296;28;20397;-49
2023/01/25 08:53:51;;;;;;;4.10;1.80;;;19.00;41.50;;;;;;5054664;28;20037;-49
2023/01/25 08:56:19;;;;;;;3.40;2.13;;;18.90;41.40;;;;;;5048343;28;20159;-47
2023/01/25 08:58:47;;;;;;;2.78;2.30;;;18.90;41.40;;;;;;5085130;28;20490;-48
2023/01/25 09:01:16;;;;;;;4.93;2.05;;;18.90;41.40;;;;;;5085313;28;20047;-49
2023/01/25 09:03:44;;;;;;;5.45;1.90;;;18.80;41.30;;;;;;5084535;28;20416;-47
2023/01/25 09:06:13;;;;;;;4.25;2.00;;;18.80;41.20;;;;;;5065279;28;20049;-49
2023/01/25 09:08:41;;;;;;;3.63;2.63;;;18.80;41.20;;;;;;5065090;28;20114;-49
2023/01/25 09:11:10;;;;;;;2.53;1.70;;;18.80;41.20;;;;;;5063981;28;20040;-50
2023/01/25 09:13:37;;;;;;;3.08;1.20;;;18.80;41.20;;;;;;5065121;28;20131;-49
2023/01/25 09:16:06;;;;;;;2.50;2.15;;;18.70;41.10;;;;;;5064626;28;20041;-46
2023/01/25 09:18:36;;;;;;;4.60;2.63;;;18.70;41.10;;;;;;5064936;28;20080;-49
2023/01/25 09:21:06;;;;;;;3.80;1.60;;;18.70;41.00;;;;;;5064625;28;20824;-46
2023/01/25 09:23:35;;;;;;;2.42;1.27;;;18.60;40.90;;;;;;5064549;28;20052;-47
2023/01/25 09:26:02;;;;;;;3.95;1.98;;;18.60;40.90;;;;;;5063982;28;20062;-48
2023/01/25 09:28:31;;;;;;;3.58;2.38;;;18.60;40.90;;;;;;5063250;28;20052;-51
2023/01/25 09:30:59;;;;;;;2.15;1.77;;;18.50;40.80;;;;;;5064864;28;20041;-46
2023/01/25 09:33:41;;;;;;;2.55;2.33;;;18.50;40.70;;;;;;5047100;28;20553;-48
2023/01/25 09:36:08;;;;;;;2.72;2.08;;;18.50;40.70;;;;;;5064548;28;20579;-47
2023/01/25 09:38:37;;;;;;;2.40;1.77;;;18.50;40.70;;;;;;5064702;28;20041;-46
2023/01/25 09:41:27;;;;;;;3.45;2.00;;;18.40;40.70;;;;;;5063880;28;20467;-48
2023/01/25 09:44:07;;;;;;;5.22;1.77;;;18.40;40.70;;;;;;5061439;28;20049;-50
2023/01/25 09:46:40;;;;;;;2.67;2.40;;;18.40;40.70;;;;;;5064244;28;20076;-51
2023/01/25 09:49:21;;;;;;;1.88;1.65;;;18.40;40.70;;;;;;5047117;28;20069;-50
2023/01/25 09:52:04;;;;;;;3.92;1.90;;;18.40;40.70;;;;;;5044776;28;20586;-48
2023/01/25 09:54:39;;;;;;;2.67;2.33;;;18.40;40.70;;;;;;5044126;28;20078;-49
2023/01/25 09:57:11;;;;;;;2.08;1.73;;;18.30;40.70;;;;;;5044511;28;20517;-52
2023/01/25 09:59:39;;;;;;;3.38;1.70;;;18.30;40.70;;;;;;5044626;28;21017;-48
2023/01/25 10:02:26;;;;;;;2.35;2.10;;;18.30;41.30;;;;;;5044463;28;20668;-48
2023/01/25 10:04:56;;;;;;;4.30;1.77;;;18.20;40.60;;;;;;5054780;28;20056;-51
2023/01/25 10:07:27;;;;;;;4.57;1.45;;;18.20;40.70;;;;;;5062691;28;20047;-47
2023/01/25 10:10:04;;;;;;;1.77;1.52;;;18.20;40.60;;;;;;5063746;28;20048;-46
2023/01/25 10:12:37;;;;;;;1.73;1.17;;;18.20;40.60;;;;;;5062841;28;20531;-47
2023/01/25 10:15:18;;;;;;;2.22;1.80;;;18.20;40.60;;;;;;5064576;28;20052;-47
2023/01/25 10:17:47;;;;;;;4.45;2.45;;;18.20;40.60;;;;;;5063137;28;20059;-48
2023/01/25 10:20:23;;;;;;;3.65;1.05;;;18.10;40.50;;;;;;5064740;28;20463;-51
2023/01/25 10:22:54;;;;;;;2.83;1.42;;;18.10;40.50;;;;;;5064921;28;20044;-50
2023/01/25 10:25:32;;;;;;;2.13;1.60;;;18.10;40.50;;;;;;5067508;28;20132;-51
2023/01/25 10:28:20;;;;;;;1.45;1.35;;;18.10;40.50;;;;;;5067319;28;20051;-51
2023/01/25 10:30:54;;;;;;;1.38;1.27;;;18.10;40.50;;;;;;5067503;28;20044;-48
2023/01/25 10:33:21;;;;;;;4.00;2.63;;;18.10;41.10;;;;;;5067264;28;20052;-47
2023/01/25 10:35:50;;;;;;;1.05;0.98;;;18.00;40.40;;;;;;5066870;28;20102;-49
2023/01/25 10:38:21;;;;;;;2.92;1.60;;;18.00;40.40;;;;;;5066849;28;20068;-50
2023/01/25 10:40:56;;;;;;;2.85;0.95;;;18.00;40.40;;;;;;5066916;28;20071;-49
2023/01/25 10:43:23;;;;;;;1.80;1.52;;;18.00;40.40;;;;;;5067278;28;20051;-50
2023/01/25 10:45:51;;;;;;;2.53;1.98;;;18.00;40.40;;;;;;5067341;28;20054;-49
2023/01/25 10:48:22;;;;;;;1.90;0.90;;;18.00;40.30;;;;;;5067663;28;20529;-48
2023/01/25 10:50:52;;;;;;;1.77;1.45;;;18.00;40.30;;;;;;5066059;28;20147;-51
2023/01/25 10:53:28;;;;;;;2.05;1.65;;;18.00;40.40;;;;;;5066941;28;20050;-50
2023/01/25 10:56:01;;;;;;;;;;;18.00;40.30;;;;;;5067153;28;20121;-46
2023/01/25 10:58:35;;;;;;;1.75;0.95;;;17.90;40.30;;;;;;5066960;28;19959;-49
2023/01/25 11:01:05;;;;;;;4.20;1.70;;;17.90;40.40;;;;;;5067440;28;20045;-50
2023/01/25 11:03:38;;;;;;;3.00;1.67;;;17.90;40.40;;;;;;5050493;28;20465;-48
2023/01/25 11:06:07;;;;;;;2.05;1.27;;;17.90;40.30;;;;;;5046418;28;20091;-46
2023/01/25 11:08:36;;;;;;;4.05;1.80;;;17.90;40.30;;;;;;5059725;28;20049;-46
2023/01/25 11:11:31;;;;;;;3.05;1.60;;;17.90;40.20;;;;;;5066437;28;20528;-54
2023/01/25 11:13:58;;;;;;;4.57;1.77;;;17.90;40.20;;;;;;5064969;28;20505;-47
2023/01/25 11:16:32;;;;;;;2.60;1.40;;;17.90;40.30;;;;;;5066693;28;20072;-49
2023/01/25 11:19:02;;;;;;;1.38;1.27;;;17.90;40.20;;;;;;5066986;28;20467;-48
2023/01/25 11:21:31;;;;;;;1.60;1.40;;;17.80;40.70;;;;;;5066153;28;20051;-48
2023/01/25 11:24:02;;;;;;;1.58;1.48;;;17.80;40.10;;;;;;5066094;28;20112;-49
2023/01/25 11:26:32;;;;;;;2.35;2.15;;;17.80;40.10;;;;;;5063505;28;20098;-51
2023/01/25 11:29:11;;;;;;;5.13;1.70;;;17.80;40.00;;;;;;5066341;28;20082;-47
2023/01/25 11:31:40;;;;;;;3.17;2.05;;;17.90;40.10;;;;;;5066577;28;20512;-46
2023/01/25 11:34:11;;;;;;;2.50;1.67;;;17.80;40.00;;;;;;5064052;28;20047;-49
2023/01/25 11:36:49;;;;;;;2.20;1.58;;;17.80;40.00;;;;;;5065827;28;20497;-48
2023/01/25 11:39:29;;;;;;;2.45;1.63;;;17.80;40.40;;;;;;5053379;28;20161;-48
2023/01/25 11:42:09;;;;;;;3.35;1.77;;;17.80;39.90;;;;;;5065910;28;20048;-50
2023/01/25 11:45:03;;;;;;;2.30;1.73;;;17.80;39.90;;;;;;5066234;28;20068;-50
2023/01/25 11:47:43;;;;;;;10.63;3.88;;;17.80;39.90;;;;;;5065035;28;20783;-51
2023/01/25 11:50:16;;;;;;;1.35;1.23;;;17.80;40.00;;;;;;5065941;28;20086;-50
2023/01/25 11:53:19;;;;;;;3.10;1.83;;;17.80;39.90;;;;;;5066013;28;20844;-50
2023/01/25 11:55:52;;;;;;;4.00;2.60;;;17.80;39.90;;;;;;5045459;28;20464;-48
2023/01/25 11:58:45;;;;;;;3.47;2.70;;;17.80;39.90;;;;;;5065585;28;20409;-52
2023/01/25 12:01:19;;;;;;;3.33;2.40;;;17.80;39.80;;;;;;5065614;28;20123;-46
2023/01/25 12:04:18;;;;;;;1.83;1.67;;;17.70;39.80;;;;;;5065402;28;20938;-48
2023/01/25 12:06:57;;;;;;;4.20;2.80;;;17.70;39.80;;;;;;5065720;28;20063;-49
2023/01/25 12:09:46;;;;;;;4.07;1.83;;;17.70;39.80;;;;;;5065328;28;20052;-50
2023/01/25 12:12:24;;;;;;;5.72;2.88;;;17.70;39.70;;;;;;5065279;28;20143;-48
2023/01/25 12:15:20;;;;;;;5.50;3.17;;;17.70;39.80;;;;;;5065703;28;20045;-50
2023/01/25 12:18:02;;;;;;;4.22;2.80;;;17.70;39.70;;;;;;5065680;28;20420;-49
2023/01/25 12:20:41;;;;;;;4.28;2.78;;;17.70;40.30;;;;;;5065006;28;20037;-48
2023/01/25 12:23:21;;;;;;;6.15;4.15;;;17.70;39.70;;;;;;5065300;28;20076;-50
2023/01/25 12:26:00;;;;;;;6.55;3.50;;;17.70;39.80;;;;;;5064795;28;20147;-50
2023/01/25 12:28:33;;;;;;;4.22;3.03;;;17.70;39.80;;;;;;5063687;28;20064;-48
2023/01/25 12:31:07;;;;;;;6.22;3.60;;;17.70;39.70;;;;;;5045395;28;20041;-50
2023/01/25 12:33:40;;;;;;;6.90;3.75;;;17.60;39.70;;;;;;5044817;28;20588;-48
2023/01/25 12:36:14;;;;;;;6.78;3.38;;;17.60;39.60;;;;;;5044918;28;20514;-48
2023/01/25 12:38:48;;;;;;;6.95;3.83;;;17.60;39.60;;;;;;5044811;28;20072;-48
2023/01/25 12:41:26;;;;;;;8.18;3.85;;;17.60;39.60;;;;;;5064750;28;20136;-49
2023/01/25 12:44:00;;;;;;;6.30;3.75;;;17.60;39.60;;;;;;5064885;28;20041;-46
2023/01/25 12:46:35;;;;;;;7.13;4.05;;;17.60;39.60;;;;;;5062513;28;20048;-48
2023/01/25 12:49:11;;;;;;;7.38;4.40;;;17.60;39.60;;;;;;5064707;28;20136;-47
2023/01/25 12:51:40;;;;;;;;;;;17.60;39.60;;;;;;5065287;28;20041;-47
2023/01/25 12:54:16;;;;;;;6.70;4.07;;;17.60;39.60;;;;;;5064753;28;20290;-48
2023/01/25 12:56:51;;;;;;;6.32;3.67;;;17.60;39.70;;;;;;5064500;28;20541;-48
2023/01/25 12:59:26;;;;;;;5.45;3.50;;;17.50;39.60;;;;;;5059410;28;20568;-47
2023/01/25 13:02:01;;;;;;;4.87;4.10;;;17.60;39.60;;;;;;5064809;28;20056;-49
2023/01/25 13:04:49;;;;;;;6.65;4.78;;;17.60;39.60;;;;;;5064911;28;20110;-46